Time;durP1;ratioP1;P1;durP2;ratioP2;P2;SDS_P1;SDS_P2;PMS_P1;PMS_P2;Temp;Humidity;BMP_temperature;BMP_pressure;BME280_temperature;BME280_humidity;BME280_pressure;Samples;Min_cycle;Max_cycle;Signal;HPM_P1;HPM_P2
2023/10/04 01:05:32;;;;;;;3.33;2.50;;;13.50;99.90;;;;;;6261502;22;20419;-87
2023/10/04 01:48:15;;;;;;;6.23;3.07;;;;;;;;;;6197430;22;20451;-87
2023/10/04 01:50:42;;;;;;;5.37;3.10;;;13.40;99.90;;;;;;6312689;22;20788;-87
2023/10/04 01:53:11;;;;;;;6.50;3.00;;;13.30;99.90;;;;;;6311966;22;20391;-87
2023/10/04 01:55:40;;;;;;;5.60;3.90;;;13.30;99.90;;;;;;6310922;22;20453;-87
2023/10/04 01:58:08;;;;;;;4.40;3.17;;;;;;;;;;6311394;22;20530;-87
2023/10/04 02:00:35;;;;;;;5.83;2.73;;;;;;;;;;6333805;22;20506;-87
2023/10/04 02:03:07;;;;;;;5.03;3.13;;;13.30;99.90;;;;;;6333597;22;20417;-87
2023/10/04 02:05:37;;;;;;;7.53;2.80;;;;;;;;;;6312716;22;20392;-88
2023/10/04 02:08:12;;;;;;;4.80;2.97;;;13.20;99.90;;;;;;6311534;22;20793;-86
2023/10/04 02:10:45;;;;;;;5.17;2.53;;;13.10;99.90;;;;;;6309593;22;20923;-87
2023/10/04 02:13:15;;;;;;;5.20;2.90;;;;;;;;;;6309726;22;20414;-87
2023/10/04 02:15:43;;;;;;;9.40;3.23;;;13.60;99.90;;;;;;6309915;22;20400;-86
2023/10/04 02:18:11;;;;;;;10.33;3.27;;;;;;;;;;6310721;22;20461;-87
2023/10/04 02:20:38;;;;;;;3.60;2.60;;;13.20;99.90;;;;;;6309995;22;20407;-87
2023/10/04 02:23:07;;;;;;;5.23;2.87;;;13.20;99.90;;;;;;6309956;22;20465;-87
2023/10/04 02:25:34;;;;;;;3.80;3.27;;;13.20;99.90;;;;;;6310630;22;20765;-86
2023/10/04 02:28:09;;;;;;;8.97;4.20;;;13.20;99.90;;;;;;6310011;22;20490;-87
2023/10/04 02:30:37;;;;;;;10.13;3.03;;;13.20;99.90;;;;;;6309751;22;20410;-87
2023/10/04 02:33:08;;;;;;;6.80;2.93;;;13.20;99.90;;;;;;6311539;22;20478;-87
2023/10/04 02:35:43;;;;;;;4.50;2.40;;;13.20;99.90;;;;;;6333612;22;20388;-87
2023/10/04 02:38:16;;;;;;;8.27;2.63;;;13.20;99.90;;;;;;6334224;22;20415;-85
2023/10/04 02:40:43;;;;;;;4.63;2.47;;;13.20;99.90;;;;;;6331286;22;20476;-86
2023/10/04 02:43:11;;;;;;;6.70;2.87;;;13.10;99.90;;;;;;6322070;22;20406;-87
2023/10/04 02:45:41;;;;;;;6.50;2.93;;;13.10;99.90;;;;;;6331089;22;20410;-86
2023/10/04 02:48:10;;;;;;;7.73;3.33;;;13.10;99.90;;;;;;6330145;22;20755;-86
2023/10/04 02:50:39;;;;;;;13.07;3.87;;;13.20;99.90;;;;;;6326388;22;20431;-86
2023/10/04 02:53:08;;;;;;;11.97;4.40;;;13.20;99.90;;;;;;6319076;22;20439;-86
2023/10/04 02:55:36;;;;;;;9.03;3.47;;;13.10;99.90;;;;;;6316739;22;20407;-87
2023/10/04 02:58:12;;;;;;;6.77;3.60;;;13.10;99.90;;;;;;6333785;22;20427;-85
2023/10/04 03:00:44;;;;;;;4.37;3.30;;;13.00;99.90;;;;;;6336629;22;20469;-86
2023/10/04 03:03:11;;;;;;;3.50;3.20;;;13.00;99.90;;;;;;6323752;22;20413;-86
2023/10/04 03:05:40;;;;;;;4.23;3.30;;;13.10;99.90;;;;;;6318215;22;20407;-86
2023/10/04 03:08:07;;;;;;;4.30;3.40;;;13.00;99.90;;;;;;6335340;22;20407;-86
2023/10/04 03:10:35;;;;;;;5.33;3.07;;;13.20;99.90;;;;;;6336420;22;20419;-86
2023/10/04 03:13:02;;;;;;;10.57;4.20;;;13.20;99.90;;;;;;6335897;22;20438;-85
2023/10/04 03:15:29;;;;;;;3.80;3.50;;;13.20;99.90;;;;;;6326886;22;20407;-87
2023/10/04 03:17:59;;;;;;;4.93;3.47;;;13.10;99.90;;;;;;6312823;22;20454;-88
2023/10/04 03:20:29;;;;;;;6.30;3.17;;;13.10;99.90;;;;;;6312442;22;20431;-86
2023/10/04 03:22:57;;;;;;;5.57;3.40;;;13.10;99.90;;;;;;6311672;22;20388;-87
2023/10/04 03:25:26;;;;;;;3.40;3.10;;;12.80;99.90;;;;;;6310416;22;20404;-87
2023/10/04 03:27:54;;;;;;;7.70;4.30;;;13.10;99.90;;;;;;6310381;22;20432;-87
2023/10/04 03:30:21;;;;;;;6.37;3.73;;;13.00;99.90;;;;;;6310590;22;20556;-87
2023/10/04 03:32:52;;;;;;;5.73;3.90;;;13.30;99.90;;;;;;6310843;22;20506;-87
2023/10/04 03:35:21;;;;;;;5.80;3.63;;;12.90;99.90;;;;;;6323020;22;20406;-86
2023/10/04 03:37:54;;;;;;;13.70;4.47;;;12.80;99.90;;;;;;6336305;22;20486;-87
2023/10/04 03:40:22;;;;;;;7.70;3.97;;;12.90;99.90;;;;;;6336642;22;20406;-86
2023/10/04 03:42:51;;;;;;;10.17;5.97;;;12.90;99.90;;;;;;6333372;22;20458;-87
2023/10/04 03:45:20;;;;;;;6.27;3.60;;;12.90;99.90;;;;;;6333686;22;20426;-86
2023/10/04 03:47:50;;;;;;;6.60;4.30;;;12.90;99.90;;;;;;6315241;22;20435;-86
2023/10/04 03:50:19;;;;;;;9.13;3.87;;;12.90;99.90;;;;;;6308816;22;20909;-87
2023/10/04 03:52:48;;;;;;;6.30;4.53;;;12.90;99.90;;;;;;6309938;22;20431;-87
2023/10/04 03:55:15;;;;;;;14.73;12.60;;;12.90;99.90;;;;;;6314858;22;20445;-87
2023/10/04 03:57:42;;;;;;;6.33;4.90;;;12.80;99.90;;;;;;6309641;22;20423;-87
2023/10/04 04:00:12;;;;;;;6.30;4.83;;;12.90;99.90;;;;;;6310008;22;20935;-87
2023/10/04 04:02:39;;;;;;;4.83;4.30;;;12.80;99.90;;;;;;6309746;22;20399;-87
2023/10/04 04:05:11;;;;;;;7.30;4.67;;;12.80;99.90;;;;;;6310182;22;20461;-87
2023/10/04 04:07:39;;;;;;;5.60;4.10;;;12.50;99.90;;;;;;6327851;22;20428;-87
2023/10/04 04:10:08;;;;;;;5.50;4.40;;;12.30;99.90;;;;;;6312750;22;20407;-86
2023/10/04 04:12:36;;;;;;;9.03;4.67;;;12.90;99.90;;;;;;6314321;22;20467;-87
2023/10/04 04:15:07;;;;;;;6.53;4.50;;;12.70;99.90;;;;;;6313167;22;20413;-86
2023/10/04 04:17:34;;;;;;;6.17;5.13;;;12.80;99.90;;;;;;6311097;22;20758;-87
2023/10/04 04:20:03;;;;;;;5.30;4.60;;;12.80;99.90;;;;;;6317148;22;20410;-87
2023/10/04 04:22:30;;;;;;;10.77;4.70;;;12.80;99.90;;;;;;6329175;22;20408;-87
2023/10/04 04:24:57;;;;;;;6.67;4.97;;;12.80;99.90;;;;;;6331208;22;20391;-86
2023/10/04 04:27:25;;;;;;;7.50;4.80;;;12.80;99.90;;;;;;6311410;22;20445;-85
2023/10/04 04:29:53;;;;;;;9.93;5.03;;;12.80;99.90;;;;;;6311105;22;20482;-86
2023/10/04 04:32:26;;;;;;;8.07;5.67;;;12.80;99.90;;;;;;6311366;22;20449;-87
2023/10/04 04:34:53;;;;;;;7.87;5.97;;;13.00;99.90;;;;;;6311216;22;20394;-87
2023/10/04 04:37:23;;;;;;;10.20;6.13;;;12.70;99.90;;;;;;6313990;22;20419;-87
2023/10/04 04:39:51;;;;;;;10.00;4.60;;;12.70;99.90;;;;;;6312414;22;20410;-86
2023/10/04 04:42:29;;;;;;;7.63;4.40;;;12.70;99.90;;;;;;6313402;22;20399;-87
2023/10/04 04:45:33;;;;;;;6.27;4.53;;;12.80;99.90;;;;;;6317653;22;20398;-87
2023/10/04 04:48:00;;;;;;;8.90;4.73;;;12.80;99.90;;;;;;6321574;22;20457;-85
2023/10/04 04:50:27;;;;;;;8.83;4.97;;;13.00;99.90;;;;;;6337688;22;20402;-85
2023/10/04 04:52:55;;;;;;;9.90;6.93;;;12.80;99.90;;;;;;6314780;22;20445;-87
2023/10/04 04:55:26;;;;;;;10.27;8.07;;;12.80;99.90;;;;;;6314135;22;20486;-87
2023/10/04 05:04:32;;;;;;;8.83;5.93;;;12.70;99.90;;;;;;6158311;23;20396;-86
2023/10/04 05:13:47;;;;;;;6.80;4.70;;;12.70;99.90;;;;;;6068013;23;20471;-87
2023/10/04 05:19:08;;;;;;;8.27;5.00;;;;;;;;;;6248980;23;20413;-87
2023/10/04 05:21:50;;;;;;;7.27;4.70;;;12.80;99.90;;;;;;6251572;23;20531;-87
2023/10/04 06:56:35;;;;;;;7.60;4.97;;;;;;;;;;6233519;23;20414;-88
2023/10/04 12:16:29;;;;;;;4.73;2.93;;;16.80;1.00;;;;;;6278500;22;20432;-88
2023/10/04 12:19:03;;;;;;;11.70;4.20;;;17.20;1.00;;;;;;6304296;22;20494;-88
2023/10/04 12:21:34;;;;;;;6.37;4.73;;;;;;;;;;6301218;22;20408;-88
2023/10/04 12:24:02;;;;;;;7.97;3.20;;;;;;;;;;6298538;22;20491;-87
2023/10/04 12:26:35;;;;;;;5.70;3.57;;;17.10;1.00;;;;;;6285797;22;20450;-88
2023/10/04 15:03:53;;;;;;;6.07;3.63;;;17.10;1.00;;;;;;6319652;22;20439;-89
2023/10/04 15:43:11;;;;;;;;;;;;;;;;;;;;;
2023/10/04 17:03:34;;;;;;;;;;;;;;;;;;;;;
2023/10/04 17:06:04;;;;;;;11.73;6.03;;;15.90;1.80;;;;;;6245195;22;20198;-87
2023/10/04 17:08:32;;;;;;;10.00;5.93;;;;;;;;;;6286211;22;20404;-88
2023/10/04 17:11:00;;;;;;;7.30;6.27;;;;;;;;;;6285423;22;20515;-88
2023/10/04 17:13:27;;;;;;;11.37;6.50;;;;;;;;;;6291632;22;20415;-88
2023/10/04 17:15:54;;;;;;;10.13;7.17;;;;;;;;;;6297955;22;20436;-88
2023/10/04 17:18:24;;;;;;;10.10;7.10;;;15.80;20.70;;;;;;6286211;22;20444;-86
2023/10/04 17:20:54;;;;;;;10.83;6.93;;;15.80;26.80;;;;;;6287213;22;20409;-87
2023/10/04 17:23:23;;;;;;;15.30;9.83;;;15.80;57.10;;;;;;6302495;22;20447;-85
2023/10/04 17:25:50;;;;;;;9.67;7.57;;;;;;;;;;6299624;22;20420;-87
2023/10/04 17:28:21;;;;;;;13.13;8.40;;;;;;;;;;6286287;22;20491;-87
2023/10/04 17:30:53;;;;;;;12.17;7.90;;;15.80;48.70;;;;;;6286418;22;20903;-87
2023/10/04 17:33:24;;;;;;;11.63;8.40;;;;;;;;;;6288614;22;20419;-87
2023/10/04 17:35:58;;;;;;;10.53;7.43;;;;;;;;;;6287054;22;20412;-87
2023/10/04 17:38:27;;;;;;;14.60;7.53;;;15.70;91.80;;;;;;6294929;22;20411;-87
2023/10/04 17:41:00;;;;;;;9.57;7.67;;;15.70;72.90;;;;;;6303717;22;20450;-87
2023/10/04 17:43:32;;;;;;;13.20;8.20;;;;;;;;;;6303055;22;20484;-87
2023/10/04 17:46:02;;;;;;;10.80;8.77;;;15.60;77.90;;;;;;6296508;22;20425;-87
2023/10/04 17:48:35;;;;;;;15.10;9.70;;;15.60;73.80;;;;;;6289619;22;20412;-87
2023/10/04 17:51:07;;;;;;;18.33;9.10;;;;;;;;;;6288211;22;20408;-87
2023/10/04 17:53:41;;;;;;;12.53;7.30;;;15.50;93.00;;;;;;6289836;22;20775;-87
2023/10/04 17:56:17;;;;;;;13.13;8.23;;;15.50;99.90;;;;;;6289973;22;20427;-88
2023/10/04 17:58:47;;;;;;;10.57;8.10;;;15.50;99.30;;;;;;6303262;22;20392;-88
2023/10/04 18:01:16;;;;;;;12.87;8.40;;;15.50;99.90;;;;;;6296057;22;20920;-87
2023/10/04 18:03:43;;;;;;;10.57;8.63;;;;;;;;;;6292489;22;20442;-88
2023/10/04 18:06:14;;;;;;;11.93;7.93;;;;;;;;;;6291300;22;20436;-87
2023/10/04 18:08:46;;;;;;;12.67;8.47;;;15.40;69.80;;;;;;6290637;22;20435;-87
2023/10/04 18:11:19;;;;;;;11.50;8.00;;;15.40;26.40;;;;;;6290889;22;20412;-87
2023/10/04 18:13:46;;;;;;;7.90;7.20;;;;;;;;;;6291954;22;20411;-88
2023/10/04 18:16:16;;;;;;;7.63;6.07;;;15.40;96.50;;;;;;6305519;22;20505;-86
2023/10/04 18:18:51;;;;;;;9.23;7.50;;;15.40;1.00;;;;;;6306442;22;20385;-85
2023/10/04 18:21:23;;;;;;;8.50;6.83;;;15.40;18.20;;;;;;6306055;22;20403;-86
2023/10/04 18:23:51;;;;;;;9.33;6.73;;;15.40;33.10;;;;;;6304023;22;20420;-85
2023/10/04 18:26:18;;;;;;;8.70;5.80;;;;;;;;;;6306078;22;20428;-86
2023/10/04 18:28:48;;;;;;;11.97;6.20;;;;;;;;;;6305792;22;20388;-87
2023/10/04 18:31:16;;;;;;;13.60;7.27;;;;;;;;;;6300901;22;20508;-87
2023/10/04 18:33:43;;;;;;;7.70;6.77;;;;;;;;;;6293221;22;20803;-88
2023/10/04 18:36:16;;;;;;;11.90;7.07;;;15.30;27.50;;;;;;6290452;22;20424;-87
2023/10/04 18:38:44;;;;;;;9.40;5.60;;;;;;;;;;6291465;22;20807;-88
2023/10/04 18:41:13;;;;;;;7.40;6.00;;;15.30;1.00;;;;;;6289656;22;20405;-87
2023/10/04 18:43:43;;;;;;;10.63;6.60;;;15.30;1.00;;;;;;6289644;22;20435;-88
2023/10/04 18:46:11;;;;;;;11.80;6.10;;;;;;;;;;6290510;22;20527;-88
2023/10/04 18:48:38;;;;;;;13.50;7.40;;;;;;;;;;6290961;22;20408;-88
2023/10/04 18:51:08;;;;;;;13.43;8.40;;;14.70;1.00;;;;;;6289927;22;20397;-87
2023/10/04 18:53:36;;;;;;;10.60;7.50;;;;;;;;;;6296137;22;20407;-87
2023/10/04 18:56:06;;;;;;;8.77;7.10;;;15.30;7.70;;;;;;6297555;22;20451;-88
2023/10/04 18:58:35;;;;;;;9.07;6.00;;;15.30;1.00;;;;;;6290627;22;20387;-87
2023/10/04 19:01:03;;;;;;;10.60;7.13;;;;;;;;;;6292182;22;20170;-88
2023/10/04 19:03:30;;;;;;;10.03;8.10;;;;;;;;;;6293721;22;20423;-88
2023/10/04 19:05:59;;;;;;;17.27;9.97;;;15.30;1.00;;;;;;6293694;22;20442;-88
2023/10/04 19:08:31;;;;;;;16.20;8.60;;;15.30;1.00;;;;;;6292776;22;20393;-89
2023/10/04 19:11:05;;;;;;;16.70;8.37;;;15.20;1.00;;;;;;6293030;22;20404;-87
2023/10/04 19:13:32;;;;;;;11.27;7.00;;;;;;;;;;6292696;22;20400;-87
2023/10/04 19:16:02;;;;;;;9.43;6.90;;;15.20;1.00;;;;;;6293467;22;20435;-87
2023/10/04 19:18:30;;;;;;;10.10;7.30;;;;;;;;;;6293508;22;20408;-88
2023/10/04 19:21:01;;;;;;;10.00;7.27;;;15.20;9.80;;;;;;6298056;22;20404;-88
2023/10/04 19:23:32;;;;;;;8.03;6.57;;;15.20;18.10;;;;;;6305294;22;20411;-87
2023/10/04 19:25:59;;;;;;;13.13;7.73;;;;;;;;;;6295754;22;20436;-87
2023/10/04 19:28:28;;;;;;;9.07;6.77;;;;;;;;;;6299858;22;20396;-87
2023/10/04 19:31:05;;;;;;;12.27;7.70;;;15.10;1.00;;;;;;6301807;22;20411;-88
2023/10/04 19:33:34;;;;;;;8.20;5.73;;;;;;;;;;6299133;22;20410;-87
2023/10/04 19:36:04;;;;;;;13.10;6.63;;;;;;;;;;6304449;22;20410;-86
2023/10/04 19:38:35;;;;;;;15.80;8.77;;;15.10;2.80;;;;;;6299712;22;20412;-87
2023/10/04 19:41:19;;;;;;;9.70;6.90;;;15.10;1.00;;;;;;6294913;22;20400;-87
2023/10/04 19:43:46;;;;;;;10.13;6.73;;;;;;;;;;6292944;22;20428;-88
2023/10/04 19:46:18;;;;;;;10.53;6.40;;;15.10;7.90;;;;;;6290271;22;20429;-87
2023/10/04 19:48:48;;;;;;;8.90;6.43;;;15.10;5.70;;;;;;6289787;22;20480;-87
2023/10/04 19:51:16;;;;;;;10.70;6.97;;;;;;;;;;6289829;22;20476;-87
2023/10/04 19:53:43;;;;;;;10.37;7.33;;;;;;;;;;6289003;22;20408;-87
2023/10/04 19:56:13;;;;;;;6.50;5.90;;;;;;;;;;6288785;22;20413;-87
2023/10/04 19:58:40;;;;;;;10.80;8.00;;;;;;;;;;6287192;22;20412;-88
2023/10/04 20:01:08;;;;;;;8.63;6.53;;;;;;;;;;6288632;22;20438;-87
2023/10/04 20:03:39;;;;;;;10.57;6.10;;;15.00;1.00;;;;;;6288077;22;20433;-87
2023/10/04 20:06:10;;;;;;;9.30;7.53;;;15.00;1.00;;;;;;6286875;22;20443;-88
2023/10/04 20:08:37;;;;;;;10.80;8.10;;;;;;;;;;6289566;22;20435;-88
2023/10/04 20:11:07;;;;;;;11.07;7.80;;;;;;;;;;6289426;22;20400;-88
2023/10/04 20:13:34;;;;;;;13.73;7.07;;;13.10;1.00;;;;;;6289366;22;20412;-87
2023/10/04 20:16:07;;;;;;;10.03;6.60;;;14.60;99.90;;;;;;6288292;22;20428;-87
2023/10/04 20:18:39;;;;;;;9.23;6.50;;;14.80;34.20;;;;;;6290038;22;20404;-87
2023/10/04 20:21:21;;;;;;;10.93;5.87;;;14.90;2.60;;;;;;6289443;22;20399;-88
2023/10/04 20:23:50;;;;;;;10.60;6.67;;;14.90;3.10;;;;;;6292054;22;20404;-87
2023/10/04 20:26:26;;;;;;;8.40;7.10;;;14.80;31.60;;;;;;6290028;22;20443;-88
2023/10/04 20:28:57;;;;;;;10.73;6.30;;;14.80;31.90;;;;;;6292025;22;20392;-87
2023/10/04 20:31:33;;;;;;;12.10;5.40;;;14.80;79.70;;;;;;6303053;22;20400;-87
2023/10/04 20:34:02;;;;;;;11.77;7.03;;;14.70;99.90;;;;;;6304685;22;20430;-87
2023/10/04 20:36:37;;;;;;;10.40;6.33;;;14.80;99.90;;;;;;6291648;22;20419;-86
2023/10/04 20:39:09;;;;;;;8.70;7.13;;;14.70;67.90;;;;;;6293029;22;20478;-86
2023/10/04 20:41:42;;;;;;;9.83;6.47;;;14.70;99.90;;;;;;6286220;22;20408;-87
2023/10/04 20:48:06;;;;;;;8.73;6.30;;;14.70;99.90;;;;;;6212300;23;20391;-87
2023/10/04 20:50:57;;;;;;;11.10;6.73;;;14.70;99.90;;;;;;6210843;23;20418;-86
2023/10/04 20:54:07;;;;;;;8.90;6.37;;;14.60;1.00;;;;;;6195511;23;20407;-87
2023/10/04 20:56:36;;;;;;;7.90;5.10;;;14.40;1.00;;;;;;6201563;23;20411;-87
2023/10/04 20:59:08;;;;;;;11.30;7.70;;;14.60;99.90;;;;;;6284174;22;20393;-87
2023/10/04 21:01:35;;;;;;;12.57;8.20;;;14.60;99.90;;;;;;6292695;22;20407;-88
2023/10/04 21:04:07;;;;;;;9.67;6.43;;;14.80;99.90;;;;;;6289377;22;20410;-87
2023/10/04 21:06:43;;;;;;;10.20;7.17;;;14.60;99.90;;;;;;6288611;22;20405;-88
2023/10/04 21:09:28;;;;;;;9.77;6.80;;;14.50;99.90;;;;;;6284926;22;20388;-87
2023/10/04 21:12:02;;;;;;;8.20;5.77;;;14.50;99.90;;;;;;6283870;22;20399;-88
2023/10/04 21:14:30;;;;;;;11.23;6.53;;;;;;;;;;6284486;22;20443;-88
2023/10/04 21:17:08;;;;;;;9.20;7.17;;;14.50;99.90;;;;;;6284732;22;20404;-87
2023/10/04 21:19:38;;;;;;;11.50;6.93;;;;;;;;;;6292207;22;20392;-88
2023/10/04 21:22:07;;;;;;;10.13;5.80;;;;;;;;;;6299837;22;20389;-87
2023/10/04 21:27:28;;;;;;;10.53;7.30;;;14.50;99.90;;;;;;6281002;22;20447;-87
2023/10/04 21:30:01;;;;;;;8.87;6.70;;;14.50;99.90;;;;;;6282931;22;20400;-87
2023/10/04 21:32:36;;;;;;;13.00;8.60;;;14.50;99.90;;;;;;6282505;22;20389;-87
2023/10/04 21:35:16;;;;;;;8.40;5.53;;;14.50;99.90;;;;;;6284412;22;20837;-88
2023/10/04 21:37:48;;;;;;;11.20;7.00;;;;;;;;;;6281355;22;20403;-88
2023/10/04 21:40:19;;;;;;;11.43;8.77;;;14.40;99.90;;;;;;6283644;22;20480;-88
2023/10/04 21:42:58;;;;;;;15.53;7.20;;;14.40;99.90;;;;;;6304130;22;20373;-86
2023/10/04 21:45:29;;;;;;;12.33;7.50;;;;;;;;;;6305693;22;20443;-85
2023/10/04 21:48:03;;;;;;;8.47;6.73;;;14.10;1.00;;;;;;6306855;22;20429;-85
2023/10/04 21:50:32;;;;;;;9.77;6.37;;;;;;;;;;6289019;22;20784;-86
2023/10/04 21:53:00;;;;;;;7.97;6.07;;;;;;;;;;6283329;22;20491;-86
2023/10/04 21:55:39;;;;;;;9.13;6.43;;;14.30;99.90;;;;;;6283948;22;20421;-87
2023/10/04 21:58:06;;;;;;;12.73;7.17;;;;;;;;;;6284885;22;20392;-87
2023/10/04 22:00:43;;;;;;;11.23;6.83;;;14.20;99.90;;;;;;6293285;22;20448;-87
2023/10/04 22:03:16;;;;;;;12.40;10.00;;;;;;;;;;6291611;22;20434;-88
2023/10/04 22:05:46;;;;;;;10.50;6.83;;;14.10;1.00;;;;;;6285693;22;20468;-87
2023/10/04 22:08:15;;;;;;;12.47;6.00;;;;;;;;;;6283370;22;20467;-87
2023/10/04 22:10:44;;;;;;;9.13;5.97;;;13.90;1.00;;;;;;6281774;22;20535;-87
2023/10/04 22:13:19;;;;;;;8.90;6.40;;;;;;;;;;6284107;22;20783;-86
2023/10/04 22:15:51;;;;;;;9.23;6.70;;;14.00;1.00;;;;;;6294899;22;20446;-85
2023/10/04 22:18:26;;;;;;;5.90;5.33;;;14.00;1.00;;;;;;6289153;22;20404;-88
2023/10/04 22:20:56;;;;;;;12.57;6.07;;;14.00;1.00;;;;;;6305574;22;20410;-86
2023/10/04 22:23:24;;;;;;;8.03;5.90;;;13.90;1.00;;;;;;6305632;22;20395;-86
2023/10/04 22:26:10;;;;;;;9.93;5.83;;;14.30;99.90;;;;;;6301608;22;20451;-87
2023/10/04 22:28:37;;;;;;;8.87;5.17;;;13.90;1.00;;;;;;6264138;22;20413;-87
2023/10/04 22:31:06;;;;;;;7.73;5.30;;;13.90;1.00;;;;;;6288501;22;20385;-87
2023/10/04 22:33:34;;;;;;;8.30;5.93;;;13.90;1.00;;;;;;6280476;22;20401;-88
2023/10/04 22:36:02;;;;;;;8.00;6.13;;;13.80;1.00;;;;;;6282053;22;20431;-88
2023/10/04 22:38:45;;;;;;;9.30;5.83;;;14.00;1.00;;;;;;6281984;22;20404;-88
2023/10/04 22:41:20;;;;;;;8.70;5.90;;;13.90;1.00;;;;;;6291083;22;20392;-87
2023/10/04 22:43:56;;;;;;;8.50;5.60;;;13.90;1.00;;;;;;6302507;22;20391;-88
2023/10/04 22:46:42;;;;;;;8.67;5.87;;;13.90;1.00;;;;;;6288164;22;20443;-88
2023/10/04 22:49:14;;;;;;;7.93;5.57;;;13.80;1.00;;;;;;6282777;22;20400;-87
2023/10/04 22:54:35;;;;;;;12.70;5.33;;;;;;;;;;6267088;22;20513;-88
2023/10/04 22:57:13;;;;;;;7.87;5.53;;;13.80;1.00;;;;;;6281025;22;20709;-88
2023/10/04 22:59:48;;;;;;;7.33;5.27;;;13.80;1.00;;;;;;6281235;22;20409;-87
2023/10/04 23:02:34;;;;;;;11.53;7.17;;;13.80;1.00;;;;;;6282956;22;20458;-88
